Time;durP1;ratioP1;P1;durP2;ratioP2;P2;SDS_P1;SDS_P2;PMS_P1;PMS_P2;Temp;Humidity;BMP_temperature;BMP_pressure;BME280_temperature;BME280_humidity;BME280_pressure;Samples;Min_cycle;Max_cycle;Signal;HPM_P1;HPM_P2
2022/10/25 00:01:19;;;;;;;93.60;40.70;;;;;;;22.18;48.45;95392.53;5045125;28;20328;-64
2022/10/25 00:03:45;;;;;;;93.28;39.85;;;;;;;22.17;48.36;95399.19;5062571;28;20047;-65
2022/10/25 00:06:11;;;;;;;87.90;39.08;;;;;;;22.17;48.25;95404.63;5043773;28;20095;-62
2022/10/25 00:08:36;;;;;;;84.22;36.70;;;;;;;22.17;48.16;95407.34;5062166;28;20440;-65
2022/10/25 00:11:02;;;;;;;80.03;36.97;;;;;;;21.98;48.13;95376.41;5061000;28;20037;-64
2022/10/25 00:13:27;;;;;;;87.13;38.67;;;;;;;22.11;48.48;95417.47;5044203;28;20055;-68
2022/10/25 00:15:53;;;;;;;81.85;38.50;;;;;;;22.15;48.20;95401.69;5062703;28;20028;-68
2022/10/25 00:18:18;;;;;;;80.95;36.33;;;;;;;22.13;48.40;95398.69;5060050;28;20044;-65
2022/10/25 00:20:45;;;;;;;83.38;37.30;;;;;;;22.11;48.56;95401.16;5061107;28;20052;-67
2022/10/25 00:23:12;;;;;;;81.07;35.75;;;;;;;21.28;47.87;95275.63;5061610;28;20477;-71
2022/10/25 00:25:37;;;;;;;84.18;37.00;;;;;;;22.14;48.21;95405.63;5061695;28;20094;-67
2022/10/25 00:28:02;;;;;;;81.78;36.75;;;;;;;21.95;48.28;95377.38;5030401;28;20627;-68
2022/10/25 00:30:28;;;;;;;74.72;34.08;;;;;;;22.11;48.00;95401.16;5027283;28;20433;-65
2022/10/25 00:32:53;;;;;;;78.40;37.00;;;;;;;22.13;48.37;95425.16;5026361;28;20520;-65
2022/10/25 00:35:19;;;;;;;80.75;35.85;;;;;;;22.11;48.26;95400.44;5043537;28;20836;-69
2022/10/25 00:37:44;;;;;;;78.63;35.10;;;;;;;22.12;48.19;95408.09;5061047;28;20094;-65
2022/10/25 00:40:10;;;;;;;75.18;34.05;;;;;;;22.10;48.08;95402.38;5043559;28;20040;-65
2022/10/25 00:42:35;;;;;;;76.13;34.28;;;;;;;22.11;48.24;95406.59;5043555;28;20044;-66
2022/10/25 00:45:17;;;;;;;75.38;33.30;;;;;;;22.12;48.23;95397.22;5026438;28;20052;-69
2022/10/25 00:48:03;;;;;;;72.50;33.20;;;;;;;21.24;48.12;95265.00;5042528;28;20564;-61
2022/10/25 00:50:34;;;;;;;73.82;34.72;;;;;;;22.11;48.21;95392.28;5060380;28;20101;-63
2022/10/25 00:53:25;;;;;;;74.85;34.63;;;;;;;22.11;48.03;95390.28;5031839;28;20063;-58
2022/10/25 00:55:52;;;;;;;70.93;33.53;;;;;;;21.37;47.88;95278.84;5020814;28;20048;-63
2022/10/25 00:58:19;;;;;;;70.63;32.50;;;;;;;21.90;48.06;95360.31;5043207;28;20020;-65
2022/10/25 01:00:45;;;;;;;72.70;32.40;;;;;;;21.93;48.27;95362.81;5016129;28;20044;-64
2022/10/25 01:03:12;;;;;;;69.57;33.33;;;;;;;22.06;48.34;95382.88;5009106;28;20037;-70
2022/10/25 01:05:37;;;;;;;66.20;32.22;;;;;;;22.10;48.14;95383.34;5014508;28;20080;-68
2022/10/25 01:08:04;;;;;;;66.35;32.03;;;;;;;22.09;48.09;95381.88;5009269;28;20041;-63
2022/10/25 01:10:30;;;;;;;67.32;31.63;;;;;;;22.01;48.06;95372.69;5029983;28;20029;-63
2022/10/25 01:12:55;;;;;;;68.35;32.15;;;;;;;21.88;48.14;95360.06;5033081;28;20051;-65
2022/10/25 01:15:22;;;;;;;68.05;30.77;;;;;;;22.05;48.44;95375.94;5055095;28;20079;-68
2022/10/25 01:18:00;;;;;;;61.22;30.30;;;;;;;22.09;48.27;95381.88;5036014;28;20170;-65
2022/10/25 01:20:47;;;;;;;68.18;31.15;;;;;;;22.07;48.27;95384.34;5031395;28;20048;-67
2022/10/25 01:23:36;;;;;;;63.03;29.35;;;;;;;22.08;48.21;95385.81;5057074;28;20044;-66
2022/10/25 01:26:16;;;;;;;68.00;31.45;;;;;;;22.07;47.84;95383.59;5010553;28;20048;-65
2022/10/25 01:29:25;;;;;;;63.45;29.55;;;;;;;22.05;47.99;95375.94;5018174;28;20048;-68
2022/10/25 01:32:07;;;;;;;63.00;29.30;;;;;;;22.07;48.14;95378.88;5020554;28;20126;-67
2022/10/25 01:34:53;;;;;;;61.20;29.65;;;;;;;22.06;48.00;95377.44;5041230;28;20153;-64
2022/10/25 01:37:24;;;;;;;65.53;30.48;;;;;;;22.07;48.11;95378.88;5020714;28;20490;-68
2022/10/25 01:40:19;;;;;;;58.95;28.70;;;;;;;21.35;48.17;95270.47;5027348;28;20040;-62
2022/10/25 01:42:59;;;;;;;58.22;28.15;;;;;;;21.07;48.12;95237.03;4993120;28;20185;-65
2022/10/25 01:45:29;;;;;;;55.42;26.70;;;;;;;21.99;48.10;95350.69;5012602;28;20053;-66
2022/10/25 01:48:21;;;;;;;52.78;27.38;;;;;;;22.07;47.95;95372.72;5044530;28;20102;-68
2022/10/25 01:50:47;;;;;;;59.55;28.65;;;;;;;21.92;48.01;95349.72;5034062;28;20084;-68
2022/10/25 01:53:13;;;;;;;55.70;27.35;;;;;;;21.17;48.14;95235.59;5035191;28;20045;-66
2022/10/25 01:55:58;;;;;;;54.20;27.45;;;;;;;21.96;48.21;95351.69;5025117;28;20048;-66
2022/10/25 01:58:35;;;;;;;55.35;27.70;;;;;;;22.04;48.27;95369.00;5029385;28;20080;-64
2022/10/25 02:01:24;;;;;;;55.47;26.65;;;;;;;22.04;48.40;95357.38;5030716;28;20552;-64
2022/10/25 02:03:54;;;;;;;50.75;26.00;;;;;;;21.96;48.07;95351.69;5038946;28;20045;-61
2022/10/25 02:07:04;;;;;;;54.22;26.10;;;;;;;22.04;48.32;95363.56;5038348;28;20052;-66
2022/10/25 02:09:34;;;;;;;49.60;24.95;;;;;;;22.03;48.48;95383.84;4981706;28;20109;-66
2022/10/25 02:12:00;;;;;;;50.92;27.13;;;;;;;22.03;48.29;95380.38;4980271;28;20409;-67
2022/10/25 02:14:34;;;;;;;48.78;25.38;;;;;;;21.92;48.25;95347.00;5003127;28;20045;-62
2022/10/25 02:17:12;;;;;;;54.08;26.02;;;;;;;20.58;48.19;95143.78;5021050;28;20041;-58
2022/10/25 02:19:46;;;;;;;47.35;24.75;;;;;;;22.01;48.06;95358.38;5038020;28;20545;-65
2022/10/25 02:22:12;;;;;;;51.08;25.90;;;;;;;21.90;48.07;95346.72;5022847;28;20515;-68
2022/10/25 02:24:37;;;;;;;51.47;24.80;;;;;;;21.89;48.11;95350.69;5022076;28;20045;-63
2022/10/25 02:27:03;;;;;;;51.88;26.58;;;;;;;21.98;47.95;95360.09;5033439;28;20789;-62
2022/10/25 02:29:30;;;;;;;46.80;24.42;;;;;;;21.85;48.14;95331.16;5018733;28;20076;-64
2022/10/25 02:31:55;;;;;;;50.67;25.90;;;;;;;22.00;48.12;95357.63;5037246;28;20071;-66
2022/10/25 02:34:21;;;;;;;46.90;24.10;;;;;;;21.29;48.13;95249.97;5022020;28;20365;-67
2022/10/25 02:36:49;;;;;;;50.40;24.40;;;;;;;21.98;48.12;95354.66;5038002;28;20415;-71
2022/10/25 02:39:16;;;;;;;46.85;23.70;;;;;;;21.98;48.23;95370.97;5038165;28;20044;-63
2022/10/25 02:41:41;;;;;;;45.60;24.25;;;;;;;21.99;48.14;95350.69;5037591;28;20096;-61
2022/10/25 02:44:07;;;;;;;48.00;23.35;;;;;;;21.98;48.11;95354.66;5040213;28;20467;-64
2022/10/25 02:46:32;;;;;;;44.30;24.05;;;;;;;21.29;48.24;95255.38;5022035;28;20781;-61
2022/10/25 02:48:57;;;;;;;43.92;23.20;;;;;;;21.60;48.04;95302.19;5038248;28;20630;-68
2022/10/25 02:51:23;;;;;;;46.65;23.27;;;;;;;21.98;48.31;95354.66;5037455;28;20475;-62
2022/10/25 02:53:48;;;;;;;43.88;22.85;;;;;;;21.97;48.24;95350.47;5039527;28;20806;-62
2022/10/25 02:56:16;;;;;;;42.72;21.77;;;;;;;21.96;48.18;95354.41;5054321;28;20090;-63
2022/10/25 02:58:42;;;;;;;44.88;22.52;;;;;;;21.78;48.08;95318.03;5039588;28;20073;-69
2022/10/25 03:01:08;;;;;;;43.47;22.90;;;;;;;21.93;48.17;95346.50;5038760;28;20072;-66
2022/10/25 03:03:33;;;;;;;40.72;22.23;;;;;;;21.95;48.29;95361.06;5039603;28;20059;-64
2022/10/25 03:05:59;;;;;;;42.67;21.63;;;;;;;21.96;48.38;95376.16;5038976;28;20135;-62
2022/10/25 03:08:24;;;;;;;42.92;22.42;;;;;;;21.88;48.15;95355.38;5038924;28;20060;-68
2022/10/25 03:10:50;;;;;;;43.80;21.73;;;;;;;21.92;48.07;95347.00;5036753;28;20110;-63
2022/10/25 03:13:16;;;;;;;43.40;22.60;;;;;;;21.86;48.13;95329.91;5038177;28;20481;-61
2022/10/25 03:15:42;;;;;;;44.28;21.80;;;;;;;21.75;47.96;95308.13;5038907;28;20072;-68
2022/10/25 03:18:07;;;;;;;40.67;21.05;;;;;;;21.92;48.19;95338.81;5042913;28;20060;-64
2022/10/25 03:20:33;;;;;;;41.47;21.63;;;;;;;21.93;47.77;95339.06;5042388;28;20433;-61
2022/10/25 03:22:58;;;;;;;41.67;21.85;;;;;;;21.82;48.02;95329.41;5041123;28;20576;-62
2022/10/25 03:25:24;;;;;;;41.65;22.38;;;;;;;21.93;47.99;95349.94;5041452;28;20470;-64
2022/10/25 03:27:49;;;;;;;42.30;21.58;;;;;;;20.95;48.19;95242.19;5029124;28;20041;-70
2022/10/25 03:30:14;;;;;;;38.28;20.70;;;;;;;21.92;48.03;95348.44;5039256;28;21031;-62
2022/10/25 03:32:40;;;;;;;40.38;21.35;;;;;;;21.83;48.04;95330.91;5040167;28;20052;-68
2022/10/25 03:35:06;;;;;;;40.78;21.08;;;;;;;21.93;48.05;95352.66;5024817;28;20064;-61
2022/10/25 03:37:31;;;;;;;37.17;20.27;;;;;;;21.86;48.03;95335.34;5042442;28;20082;-67
2022/10/25 03:39:57;;;;;;;39.00;21.23;;;;;;;21.94;48.16;95354.16;5041202;28;20036;-70
2022/10/25 03:42:22;;;;;;;36.50;20.92;;;;;;;21.76;48.03;95325.94;5042401;28;20049;-63
2022/10/25 03:44:48;;;;;;;36.17;19.55;;;;;;;21.76;48.02;95328.66;5040754;28;20060;-63
2022/10/25 03:47:13;;;;;;;37.17;19.73;;;;;;;21.92;48.09;95347.00;5042536;28;20400;-67
2022/10/25 03:49:39;;;;;;;37.35;20.10;;;;;;;21.92;48.24;95347.00;5041759;28;20468;-65
2022/10/25 03:52:07;;;;;;;38.55;20.55;;;;;;;21.92;48.04;95357.88;5058600;28;20471;-67
2022/10/25 03:54:33;;;;;;;35.72;19.58;;;;;;;21.92;48.05;95355.16;5062940;28;20139;-66
2022/10/25 03:56:58;;;;;;;36.08;19.75;;;;;;;21.07;48.02;95223.44;5035122;28;20495;-60
2022/10/25 03:59:24;;;;;;;39.55;20.98;;;;;;;21.81;48.33;95327.91;5062162;28;20044;-63
2022/10/25 04:01:49;;;;;;;37.47;19.90;;;;;;;21.90;48.08;95335.84;5060401;28;20048;-62
2022/10/25 04:04:15;;;;;;;35.38;19.73;;;;;;;21.75;47.99;95329.88;5044845;28;20024;-67
2022/10/25 04:06:40;;;;;;;34.72;18.45;;;;;;;20.91;48.25;95193.56;5026938;28;20098;-72
2022/10/25 04:09:06;;;;;;;35.60;18.55;;;;;;;21.91;48.06;95348.22;5020383;28;20130;-60
2022/10/25 04:11:31;;;;;;;34.90;19.48;;;;;;;21.90;47.92;95346.72;5040961;28;20133;-65
2022/10/25 04:13:57;;;;;;;34.08;19.00;;;;;;;21.90;47.96;95335.84;5044506;28;20040;-70
2022/10/25 04:16:22;;;;;;;33.40;18.17;;;;;;;21.88;47.98;95349.19;5062168;28;20025;-63
2022/10/25 04:18:50;;;;;;;32.30;17.50;;;;;;;21.87;48.07;95362.06;5029933;28;20112;-65
2022/10/25 04:21:15;;;;;;;34.83;18.25;;;;;;;21.87;48.19;95334.09;5059613;28;20517;-70
2022/10/25 04:23:41;;;;;;;33.05;18.25;;;;;;;21.81;47.92;95327.91;5044215;28;20048;-68
2022/10/25 04:26:06;;;;;;;30.92;17.73;;;;;;;21.84;48.01;95326.94;5023390;28;20041;-71
2022/10/25 04:28:32;;;;;;;33.58;18.05;;;;;;;21.88;47.99;95332.88;5046300;28;20048;-64
2022/10/25 04:30:57;;;;;;;31.55;18.00;;;;;;;21.80;48.15;95321.00;5050272;28;20719;-70
2022/10/25 04:33:22;;;;;;;32.45;18.17;;;;;;;21.87;48.08;95344.97;5059313;28;20610;-66
2022/10/25 04:35:54;;;;;;;30.02;18.08;;;;;;;21.87;48.12;95350.41;5033963;28;21081;-65
2022/10/25 04:38:19;;;;;;;31.23;17.50;;;;;;;21.87;48.08;95347.69;5024092;28;20049;-69
2022/10/25 04:40:52;;;;;;;31.42;17.83;;;;;;;21.87;47.96;95358.56;5025652;28;20045;-66
2022/10/25 04:43:17;;;;;;;33.00;17.80;;;;;;;21.58;47.98;95320.94;5018992;28;20036;-62
2022/10/25 04:45:43;;;;;;;27.15;16.05;;;;;;;21.69;47.97;95321.00;5016368;28;20196;-64
2022/10/25 04:48:08;;;;;;;29.60;17.08;;;;;;;21.85;47.91;95345.47;5016204;28;20056;-65
2022/10/25 04:50:34;;;;;;;28.05;16.85;;;;;;;21.78;47.80;95345.19;5048345;28;20052;-65
2022/10/25 04:52:59;;;;;;;29.60;17.20;;;;;;;21.46;47.95;95303.13;5061225;28;20047;-64
2022/10/25 04:55:24;;;;;;;29.90;16.75;;;;;;;21.75;48.10;95368.69;5032052;28;20028;-64
2022/10/25 04:57:50;;;;;;;28.35;16.00;;;;;;;21.74;47.79;95342.00;5046667;28;20587;-64
2022/10/25 05:00:15;;;;;;;30.50;17.10;;;;;;;21.85;47.82;95361.78;5032524;28;20517;-65
2022/10/25 05:02:41;;;;;;;27.65;16.30;;;;;;;21.85;48.02;95363.75;5028745;28;20056;-71
2022/10/25 05:05:07;;;;;;;30.77;17.63;;;;;;;21.84;47.98;95359.56;5028081;28;20726;-71
2022/10/25 05:07:32;;;;;;;28.33;16.17;;;;;;;21.84;47.75;95359.56;5025115;28;20121;-65
2022/10/25 05:09:57;;;;;;;27.95;16.58;;;;;;;21.83;47.96;95364.25;5005666;28;20047;-64
2022/10/25 05:12:23;;;;;;;29.98;17.17;;;;;;;21.83;48.18;95358.09;5049390;28;20182;-64
2022/10/25 05:14:48;;;;;;;26.30;16.05;;;;;;;21.75;47.81;95340.75;5050582;28;20433;-67
2022/10/25 05:17:14;;;;;;;27.30;15.85;;;;;;;21.85;47.86;95364.50;5005276;28;20041;-65
2022/10/25 05:19:39;;;;;;;25.63;15.90;;;;;;;21.91;47.77;95359.09;5027739;28;20056;-71
2022/10/25 05:22:05;;;;;;;27.50;15.85;;;;;;;21.94;48.49;95359.59;5023539;28;20037;-73
2022/10/25 05:24:30;;;;;;;27.00;15.13;;;;;;;22.05;49.08;95359.63;4999477;28;20045;-64
2022/10/25 05:26:56;;;;;;;29.70;15.93;;;;;;;22.03;49.06;95367.53;5036839;28;20040;-66
2022/10/25 05:29:21;;;;;;;24.85;15.27;;;;;;;22.11;50.33;95363.09;5005126;28;20455;-70
2022/10/25 05:31:47;;;;;;;26.27;14.07;;;;;;;22.03;50.76;95372.97;5007282;28;20041;-67
2022/10/25 05:34:12;;;;;;;26.13;14.75;;;;;;;22.08;51.74;95385.81;5022432;28;20041;-70
2022/10/25 05:36:37;;;;;;;23.98;14.10;;;;;;;22.10;51.16;95377.91;4991836;28;20049;-58
2022/10/25 05:39:03;;;;;;;24.75;13.95;;;;;;;21.99;52.98;95369.75;5021673;28;20759;-69
2022/10/25 05:41:29;;;;;;;23.67;13.77;;;;;;;21.96;52.05;95389.75;5017488;28;20123;-62
2022/10/25 05:43:54;;;;;;;25.17;13.50;;;;;;;22.18;52.10;95395.25;5004692;28;20061;-73
2022/10/25 05:46:21;;;;;;;22.77;12.95;;;;;;;21.98;51.22;95375.66;5024826;28;20068;-64
2022/10/25 05:48:46;;;;;;;21.63;13.18;;;;;;;21.97;50.61;95374.94;5003941;28;20083;-76
2022/10/25 05:51:16;;;;;;;22.25;13.68;;;;;;;22.29;50.19;95403.44;5044531;28;20742;-67
2022/10/25 05:53:45;;;;;;;21.13;12.67;;;;;;;22.38;50.46;95414.09;5029155;28;20147;-67
2022/10/25 05:56:11;;;;;;;22.65;13.18;;;;;;;22.58;49.81;95411.16;5040022;28;20687;-66
2022/10/25 05:58:37;;;;;;;25.45;13.77;;;;;;;22.28;49.42;95399.25;5039758;28;20033;-65
2022/10/25 06:01:02;;;;;;;21.63;12.38;;;;;;;22.46;50.01;95425.97;5038225;28;20049;-66
2022/10/25 06:03:28;;;;;;;25.30;13.27;;;;;;;22.54;49.94;95421.53;5038856;28;20106;-67
2022/10/25 06:05:53;;;;;;;22.77;12.75;;;;;;;21.93;48.94;95314.59;5058816;28;20063;-66
2022/10/25 06:08:18;;;;;;;23.35;13.05;;;;;;;22.61;48.61;95435.41;5046582;28;20057;-66
2022/10/25 06:10:44;;;;;;;23.83;12.90;;;;;;;22.59;48.98;95402.50;5041871;28;20045;-62
2022/10/25 06:13:09;;;;;;;21.77;12.68;;;;;;;22.73;48.49;95422.53;5028077;28;20035;-61
2022/10/25 06:15:37;;;;;;;20.58;11.85;;;;;;;21.75;48.22;95280.94;5046500;28;20048;-65
2022/10/25 06:18:02;;;;;;;21.75;12.52;;;;;;;22.68;48.50;95426.75;5015049;28;20052;-65
2022/10/25 06:20:28;;;;;;;22.55;12.23;;;;;;;21.72;47.95;95276.50;5024785;28;20135;-69
2022/10/25 06:22:53;;;;;;;20.33;12.63;;;;;;;22.79;47.83;95406.94;5032573;28;20087;-65
2022/10/25 06:25:19;;;;;;;19.92;12.50;;;;;;;22.87;47.78;95416.84;5024828;28;20028;-65
2022/10/25 06:27:44;;;;;;;22.33;11.27;;;;;;;22.91;47.50;95415.38;5059820;28;20094;-63
2022/10/25 06:30:10;;;;;;;19.67;11.32;;;;;;;22.84;47.86;95406.97;5048870;28;20545;-64
2022/10/25 06:32:37;;;;;;;20.02;11.80;;;;;;;22.85;47.59;95410.41;5037685;28;20095;-70
2022/10/25 06:35:03;;;;;;;21.10;11.57;;;;;;;22.85;47.11;95418.59;5055888;28;20049;-61
2022/10/25 06:37:28;;;;;;;23.15;11.93;;;;;;;22.77;47.46;95406.72;5039221;28;20515;-67
2022/10/25 06:39:54;;;;;;;17.52;11.40;;;;;;;22.74;47.63;95413.16;5054939;28;20055;-59
2022/10/25 06:42:19;;;;;;;18.75;11.77;;;;;;;22.66;47.13;95412.13;5037558;28;20101;-65
2022/10/25 06:44:45;;;;;;;18.30;11.25;;;;;;;22.62;47.56;95419.81;5042666;28;20052;-64
2022/10/25 06:47:10;;;;;;;20.77;12.10;;;;;;;22.60;47.11;95411.38;5038390;28;20045;-58
2022/10/25 06:49:35;;;;;;;18.67;11.20;;;;;;;22.63;47.12;95418.56;5028827;28;20059;-62
2022/10/25 06:52:01;;;;;;;18.58;11.32;;;;;;;22.58;47.32;95422.78;5043150;28;20056;-66
2022/10/25 06:54:26;;;;;;;18.63;11.32;;;;;;;22.58;47.26;95427.47;5033999;28;20061;-62
2022/10/25 06:56:52;;;;;;;20.33;10.70;;;;;;;22.54;47.43;95418.81;5055991;28;20040;-67
2022/10/25 06:59:19;;;;;;;17.52;10.15;;;;;;;22.54;47.20;95426.97;5043432;28;20056;-62
2022/10/25 07:01:45;;;;;;;17.48;10.95;;;;;;;22.52;47.24;95424.00;5063027;28;20052;-62
2022/10/25 07:04:10;;;;;;;17.33;10.75;;;;;;;22.50;47.00;95415.59;5041717;28;20137;-61
2022/10/25 07:06:36;;;;;;;18.77;10.73;;;;;;;22.44;46.92;95401.25;5026234;28;20053;-65
2022/10/25 07:09:02;;;;;;;21.00;11.18;;;;;;;22.52;47.12;95413.84;5042648;28;20060;-63
2022/10/25 07:11:29;;;;;;;19.40;11.55;;;;;;;21.65;46.92;95293.31;5048939;28;20071;-64
2022/10/25 07:13:58;;;;;;;19.77;11.45;;;;;;;22.15;47.16;95369.03;5041613;28;20068;-63
2022/10/25 07:16:24;;;;;;;18.05;11.18;;;;;;;22.47;46.85;95422.78;5048668;28;20585;-65
2022/10/25 07:18:49;;;;;;;18.35;11.02;;;;;;;22.46;46.83;95412.38;5055423;28;20028;-65
2022/10/25 07:21:24;;;;;;;19.05;11.57;;;;;;;21.58;46.57;95278.22;5056067;28;20500;-61
2022/10/25 07:23:49;;;;;;;20.92;11.25;;;;;;;22.42;46.79;95415.34;5036086;28;20136;-62
2022/10/25 07:26:15;;;;;;;18.67;11.10;;;;;;;22.39;46.66;95393.84;5045959;28;20440;-61
2022/10/25 07:28:42;;;;;;;23.15;11.23;;;;;;;22.39;46.82;95399.28;5043582;28;20221;-68
2022/10/25 07:31:11;;;;;;;19.63;11.02;;;;;;;22.45;46.60;95419.03;5027715;28;20421;-64
2022/10/25 07:33:36;;;;;;;19.70;11.20;;;;;;;22.45;46.32;95413.59;5025326;28;20067;-63
2022/10/25 07:36:02;;;;;;;20.13;11.15;;;;;;;22.46;46.50;95412.38;5057756;28;20043;-67
2022/10/25 07:38:27;;;;;;;20.88;11.20;;;;;;;22.45;46.20;95402.72;5034266;28;20546;-69
2022/10/25 07:40:56;;;;;;;22.50;11.95;;;;;;;22.46;46.65;95415.09;5063490;28;21894;-67
2022/10/25 07:43:22;;;;;;;20.83;11.77;;;;;;;22.46;46.44;95409.66;5028695;28;20481;-65
2022/10/25 07:45:48;;;;;;;17.38;10.90;;;;;;;22.46;46.31;95404.94;5064416;28;20055;-69
2022/10/25 07:48:14;;;;;;;19.55;11.30;;;;;;;22.47;46.67;95416.59;5041983;28;20614;-61
2022/10/25 07:50:39;;;;;;;19.23;11.60;;;;;;;22.46;46.54;95404.22;5051073;28;20061;-67
2022/10/25 07:53:05;;;;;;;18.90;11.18;;;;;;;22.47;46.49;95411.88;5036189;28;20052;-67
2022/10/25 07:55:30;;;;;;;18.48;11.32;;;;;;;22.45;46.57;95394.56;5041359;28;21652;-59
2022/10/25 07:58:02;;;;;;;17.17;11.40;;;;;;;22.47;46.19;95397.53;5043953;28;20822;-67
2022/10/25 08:00:28;;;;;;;17.83;10.70;;;;;;;22.15;46.14;95352.72;5043609;28;20045;-63
2022/10/25 08:02:53;;;;;;;17.05;11.40;;;;;;;22.49;46.14;95386.91;5040075;28;20055;-68
2022/10/25 08:05:19;;;;;;;20.35;10.98;;;;;;;22.47;46.34;95395.56;5043238;28;20079;-65
2022/10/25 08:07:44;;;;;;;20.58;12.35;;;;;;;21.63;46.00;95263.91;5038027;28;20040;-67
2022/10/25 08:10:09;;;;;;;16.88;10.68;;;;;;;22.50;46.35;95399.28;5047548;28;20531;-60
2022/10/25 08:12:35;;;;;;;19.38;11.75;;;;;;;22.50;46.46;95393.84;5056394;28;20440;-68
2022/10/25 08:15:00;;;;;;;19.38;11.45;;;;;;;22.47;46.37;95383.94;5042806;28;20542;-67
2022/10/25 08:17:26;;;;;;;17.23;10.65;;;;;;;22.52;45.93;95396.78;5041896;28;20053;-65
2022/10/25 08:19:51;;;;;;;20.23;11.50;;;;;;;22.56;46.16;95391.84;5007951;28;20052;-63
2022/10/25 08:22:17;;;;;;;20.38;11.52;;;;;;;22.56;45.91;95386.41;5042192;28;20025;-63
2022/10/25 08:24:42;;;;;;;19.40;11.65;;;;;;;22.55;45.97;95395.81;5054715;28;20068;-65
2022/10/25 08:27:07;;;;;;;19.80;11.07;;;;;;;21.92;45.97;95277.75;5018672;28;20064;-66
2022/10/25 08:29:34;;;;;;;19.55;11.18;;;;;;;22.47;45.68;95378.50;5043530;28;20052;-66
2022/10/25 08:31:59;;;;;;;22.13;11.45;;;;;;;22.57;45.93;95382.44;5023042;28;20076;-65
2022/10/25 08:34:25;;;;;;;18.30;10.85;;;;;;;22.65;45.58;95380.72;5017410;28;20171;-70
2022/10/25 08:36:50;;;;;;;17.73;10.85;;;;;;;22.65;45.65;95389.63;5027893;28;20032;-64
2022/10/25 08:39:18;;;;;;;17.45;10.45;;;;;;;22.70;45.53;95374.53;5040229;28;20203;-67
2022/10/25 08:41:49;;;;;;;18.63;10.88;;;;;;;22.74;45.04;95375.03;5044955;28;20125;-66
2022/10/25 08:44:26;;;;;;;19.48;10.98;;;;;;;22.65;45.55;95372.56;5042095;28;20049;-66
2022/10/25 08:47:01;;;;;;;16.98;9.80;;;;;;;22.68;45.40;95372.31;5040919;28;20053;-62
2022/10/25 08:49:53;;;;;;;17.20;10.45;;;;;;;22.70;45.16;95363.63;5041718;28;20067;-65
2022/10/25 08:52:58;;;;;;;17.70;10.02;;;;;;;22.73;45.03;95351.75;5046229;28;20049;-62
2022/10/25 08:55:41;;;;;;;18.88;9.80;;;;;;;22.86;44.90;95354.72;5031833;28;20044;-68
2022/10/25 08:58:28;;;;;;;14.55;9.38;;;;;;;22.92;45.42;95354.19;5019005;28;20029;-67
2022/10/25 09:00:54;;;;;;;15.43;9.63;;;;;;;22.88;45.49;95357.69;5019489;28;20595;-65
2022/10/25 09:03:25;;;;;;;19.17;10.15;;;;;;;22.82;45.44;95338.63;5024994;28;20505;-62
2022/10/25 09:06:14;;;;;;;15.25;9.50;;;;;;;23.03;44.64;95348.03;5009049;28;20059;-64
2022/10/25 09:08:49;;;;;;;16.55;9.57;;;;;;;22.98;45.08;95363.13;5051297;28;20114;-64
2022/10/25 09:11:35;;;;;;;18.88;10.30;;;;;;;23.08;45.11;95334.41;5025648;28;20061;-64
2022/10/25 09:14:21;;;;;;;15.75;9.77;;;;;;;23.15;45.03;95355.69;5042508;28;20045;-68
2022/10/25 09:16:51;;;;;;;17.73;9.10;;;;;;;22.36;44.55;95209.03;5033105;28;20041;-67
2022/10/25 09:19:38;;;;;;;17.80;9.02;;;;;;;23.35;44.97;95341.75;5019901;28;20040;-63
2022/10/25 09:22:26;;;;;;;30.80;11.77;;;;;;;23.53;43.06;95341.19;5011756;28;20044;-63
2022/10/25 09:25:02;;;;;;;23.25;10.73;;;;;;;23.31;44.54;95318.72;5056118;28;20068;-64
2022/10/25 09:27:31;;;;;;;20.02;10.45;;;;;;;22.88;44.64;95239.34;5041410;28;20522;-72
2022/10/25 09:30:05;;;;;;;23.60;10.43;;;;;;;23.61;44.83;95345.59;5059088;28;20511;-63
2022/10/25 09:32:37;;;;;;;21.80;10.82;;;;;;;23.62;44.33;95343.63;5014874;28;20060;-64
2022/10/25 09:35:05;;;;;;;20.30;9.82;;;;;;;23.78;44.32;95345.53;5041537;28;20052;-65
2022/10/25 09:37:44;;;;;;;18.33;9.30;;;;;;;23.46;43.58;95298.09;5016677;28;20075;-67
2022/10/25 09:40:28;;;;;;;17.30;8.85;;;;;;;23.90;43.87;95337.56;5015622;28;20146;-62
2022/10/25 09:43:05;;;;;;;22.35;10.38;;;;;;;23.93;43.82;95322.91;5023387;28;20048;-62
2022/10/25 09:45:39;;;;;;;17.77;9.63;;;;;;;24.00;44.21;95314.16;5056013;28;20036;-66
2022/10/25 09:48:05;;;;;;;20.50;9.13;;;;;;;24.13;43.34;95317.06;5016928;28;20810;-66
2022/10/25 09:50:36;;;;;;;23.30;9.63;;;;;;;24.07;43.33;95312.91;5032800;28;20071;-64
2022/10/25 09:53:11;;;;;;;21.13;9.85;;;;;;;24.07;42.95;95313.63;5031151;28;20041;-69
2022/10/25 09:55:48;;;;;;;20.90;9.73;;;;;;;24.09;43.28;95311.13;5040962;28;20045;-64
2022/10/25 09:58:22;;;;;;;16.27;9.18;;;;;;;24.17;43.05;95306.63;5050034;28;20045;-69
2022/10/25 10:00:48;;;;;;;16.60;8.98;;;;;;;24.23;43.24;95301.09;5033973;28;20067;-69
2022/10/25 10:03:13;;;;;;;17.90;9.02;;;;;;;24.33;42.39;95308.50;5016232;28;20145;-66
2022/10/25 10:05:41;;;;;;;19.92;8.95;;;;;;;24.50;42.52;95295.47;5030282;28;20045;-67
2022/10/25 10:08:07;;;;;;;19.13;9.25;;;;;;;24.43;42.59;95288.56;5013966;28;20144;-67
2022/10/25 10:10:33;;;;;;;16.05;8.82;;;;;;;24.56;41.78;95287.97;5022968;28;20103;-62
2022/10/25 10:13:05;;;;;;;19.55;9.13;;;;;;;23.95;41.84;95192.19;5021893;28;20866;-69
2022/10/25 10:15:37;;;;;;;19.33;8.60;;;;;;;24.64;42.05;95283.41;5031872;28;20052;-62
2022/10/25 10:18:25;;;;;;;15.13;8.02;;;;;;;24.65;41.88;95284.88;5021918;28;20128;-64
2022/10/25 10:21:10;;;;;;;24.10;9.45;;;;;;;24.48;41.98;95265.94;5054606;28;20843;-64
2022/10/25 10:23:41;;;;;;;20.45;9.13;;;;;;;24.66;41.73;95270.00;5047621;28;20083;-63
2022/10/25 10:26:22;;;;;;;17.67;8.60;;;;;;;24.77;41.56;95264.41;5045293;28;20048;-61
2022/10/25 10:28:50;;;;;;;17.65;8.68;;;;;;;24.88;41.37;95260.31;5046311;28;20532;-69
2022/10/25 10:31:15;;;;;;;20.83;9.18;;;;;;;24.18;41.39;95182.56;5026497;28;20544;-60
2022/10/25 10:33:45;;;;;;;21.88;8.70;;;;;;;24.81;41.44;95264.88;5057351;28;20032;-62
2022/10/25 10:36:23;;;;;;;16.60;7.97;;;;;;;24.86;41.31;95249.16;5035171;28;20044;-62
2022/10/25 10:38:49;;;;;;;17.52;8.45;;;;;;;24.76;41.28;95246.56;5059247;28;20083;-67
2022/10/25 10:41:26;;;;;;;18.67;8.75;;;;;;;24.90;41.23;95243.41;5037312;28;20048;-63
2022/10/25 10:44:11;;;;;;;22.98;8.65;;;;;;;24.88;41.42;95249.38;5055164;28;20044;-68
2022/10/25 10:46:45;;;;;;;19.40;8.55;;;;;;;24.20;41.17;95106.41;5022824;28;20570;-60
2022/10/25 10:49:10;;;;;;;19.75;8.55;;;;;;;24.95;41.15;95235.16;5049267;28;20040;-65
2022/10/25 10:51:38;;;;;;;18.33;9.32;;;;;;;25.07;40.83;95231.06;5054671;28;20045;-69
2022/10/25 10:54:29;;;;;;;14.95;7.70;;;;;;;24.96;40.84;95233.91;5037297;28;20118;-63
2022/10/25 10:57:01;;;;;;;17.55;8.05;;;;;;;25.00;40.97;95228.91;5026650;28;20086;-66
2022/10/25 10:59:32;;;;;;;16.10;8.43;;;;;;;25.14;40.56;95222.31;5015204;28;20064;-61
2022/10/25 11:02:11;;;;;;;17.20;8.88;;;;;;;25.10;40.66;95248.44;5062602;28;20047;-60
2022/10/25 11:04:53;;;;;;;16.27;8.02;;;;;;;25.06;40.63;95215.91;5022901;28;20164;-61
2022/10/25 11:07:33;;;;;;;15.02;7.30;;;;;;;25.26;40.35;95218.19;5051437;28;20043;-66
2022/10/25 11:10:14;;;;;;;14.48;7.32;;;;;;;25.37;40.15;95228.97;5053539;28;20020;-77
2022/10/25 11:12:40;;;;;;;20.48;8.55;;;;;;;25.20;40.25;95209.31;5056294;28;20048;-69
2022/10/25 11:15:12;;;;;;;20.67;7.90;;;;;;;25.25;39.88;95186.63;5024090;28;20037;-73
2022/10/25 11:17:42;;;;;;;15.52;7.93;;;;;;;25.24;40.20;95198.78;5030746;28;20577;-62
2022/10/25 11:20:23;;;;;;;18.70;7.65;;;;;;;25.33;40.05;95201.16;5038773;28;20556;-64
2022/10/25 11:23:05;;;;;;;17.55;7.78;;;;;;;25.32;40.17;95199.72;5063829;28;20172;-63
2022/10/25 11:25:33;;;;;;;16.13;7.78;;;;;;;25.29;39.83;95199.97;5016134;28;20028;-63
2022/10/25 11:28:04;;;;;;;15.95;8.00;;;;;;;25.33;39.97;95191.00;5030655;28;20040;-70
2022/10/25 11:30:56;;;;;;;19.98;7.68;;;;;;;25.08;39.43;95109.59;5066092;28;20048;-65